Time;durP1;ratioP1;P1;durP2;ratioP2;P2;SDS_P1;SDS_P2;PMS_P1;PMS_P2;Temp;Humidity;BMP_temperature;BMP_pressure;BME280_temperature;BME280_humidity;BME280_pressure;Samples;Min_cycle;Max_cycle;Signal;HPM_P1;HPM_P2
2022/06/25 00:01:12;;;;;;;;;0.33;0.33;;;;;;;;5095177;27;45379;-74
2022/06/25 00:03:38;;;;;;;;;0.00;0.00;;;;;;;;5096658;27;45524;-74
2022/06/25 00:06:03;;;;;;;;;0.67;0.67;;;;;;;;5091690;27;45510;-74
2022/06/25 00:08:28;;;;;;;;;1.00;1.00;;;;;;;;5093493;27;45299;-75
2022/06/25 00:10:54;;;;;;;;;1.00;1.00;;;;;;;;5094611;27;45647;-74
2022/06/25 00:13:19;;;;;;;;;1.00;1.00;;;;;;;;5094412;27;45461;-74
2022/06/25 00:15:44;;;;;;;;;1.00;1.00;;;;;;;;5096790;27;46506;-74
2022/06/25 00:18:11;;;;;;;;;1.67;1.00;;;;;;;;5092113;27;45473;-75
2022/06/25 00:20:36;;;;;;;;;1.00;1.00;;;;;;;;5094547;27;45539;-75
2022/06/25 00:23:01;;;;;;;;;1.00;1.00;;;;;;;;5094374;27;45391;-74
2022/06/25 00:25:27;;;;;;;;;0.00;0.00;;;;;;;;5093963;27;45605;-75
2022/06/25 00:27:52;;;;;;;;;0.00;0.00;;;;;;;;5095982;27;45287;-74
2022/06/25 00:30:17;;;;;;;;;0.00;0.00;;;;;;;;5094932;27;45457;-74
2022/06/25 00:32:44;;;;;;;;;0.00;0.00;;;;;;;;5092612;27;45346;-74
2022/06/25 00:35:09;;;;;;;;;2.00;0.00;;;;;;;;5092403;27;45456;-74
2022/06/25 00:37:34;;;;;;;;;0.00;0.00;;;;;;;;5093757;27;45396;-74
2022/06/25 00:40:00;;;;;;;;;0.50;0.50;;;;;;;;5095457;27;45288;-74
2022/06/25 00:42:25;;;;;;;;;0.00;0.00;;;;;;;;5093831;27;45413;-74
2022/06/25 00:44:53;;;;;;;;;0.00;0.00;;;;;;;;5093665;27;45493;-75
2022/06/25 00:47:18;;;;;;;;;1.00;1.00;;;;;;;;5093501;27;45271;-74
2022/06/25 00:49:44;;;;;;;;;2.00;1.00;;;;;;;;5092372;27;45570;-75
2022/06/25 00:52:11;;;;;;;;;2.00;1.00;;;;;;;;5094185;27;45619;-74
2022/06/25 00:54:38;;;;;;;;;0.00;0.00;;;;;;;;5095870;27;45546;-74
2022/06/25 00:57:07;;;;;;;;;1.67;0.67;;;;;;;;5093578;27;45573;-75
2022/06/25 00:59:41;;;;;;;;;1.00;1.00;;;;;;;;5093804;27;45210;-74
2022/06/25 01:02:07;;;;;;;;;0.00;0.00;;;;;;;;5092268;27;45478;-75
2022/06/25 01:04:32;;;;;;;;;1.00;1.00;;;;;;;;5093217;27;47185;-74
2022/06/25 01:06:57;;;;;;;;;0.33;0.33;;;;;;;;5093743;27;45676;-73
2022/06/25 01:09:22;;;;;;;;;0.00;0.00;;;;;;;;5095576;27;45366;-71
2022/06/25 01:11:48;;;;;;;;;1.00;1.00;;;;;;;;5092238;27;45323;-73
2022/06/25 01:14:13;;;;;;;;;1.00;1.00;;;;;;;;5092238;27;46594;-73
2022/06/25 01:16:38;;;;;;;;;1.33;1.00;;;;;;;;5092648;27;45437;-73
2022/06/25 01:19:08;;;;;;;;;0.67;0.67;;;;;;;;5094088;27;49574;-73
2022/06/25 01:21:33;;;;;;;;;1.00;1.00;;;;;;;;5088465;27;45596;-72
2022/06/25 01:23:59;;;;;;;;;2.00;2.00;;;;;;;;5093176;27;47079;-72
2022/06/25 01:26:24;;;;;;;;;4.67;3.67;;;;;;;;5093803;27;45408;-72
2022/06/25 01:28:49;;;;;;;;;4.00;4.00;;;;;;;;5092081;27;45439;-74
2022/06/25 01:31:15;;;;;;;;;5.00;2.00;;;;;;;;5093709;27;45403;-73
2022/06/25 01:33:40;;;;;;;;;4.00;2.33;;;;;;;;5095688;27;46769;-73
2022/06/25 01:36:05;;;;;;;;;1.00;1.00;;;;;;;;5094039;27;45427;-72
2022/06/25 01:38:30;;;;;;;;;2.00;0.67;;;;;;;;5093597;27;45439;-73
2022/06/25 01:40:55;;;;;;;;;2.33;1.00;;;;;;;;5092229;27;45291;-73
2022/06/25 01:43:21;;;;;;;;;2.00;2.00;;;;;;;;5092963;27;48253;-73
2022/06/25 01:45:46;;;;;;;;;3.00;2.00;;;;;;;;5094769;27;45481;-73
2022/06/25 01:48:11;;;;;;;;;2.00;2.00;;;;;;;;5094039;27;45477;-73
2022/06/25 01:50:36;;;;;;;;;1.67;1.00;;;;;;;;5092284;27;45420;-74
2022/06/25 01:53:02;;;;;;;;;5.00;2.67;;;;;;;;5093362;27;47755;-69
2022/06/25 01:55:28;;;;;;;;;1.00;1.00;;;;;;;;5093260;27;45459;-70
2022/06/25 01:57:53;;;;;;;;;1.00;1.00;;;;;;;;5094433;27;45440;-75
2022/06/25 02:00:23;;;;;;;;;2.00;2.00;;;;;;;;5093802;27;45377;-75
2022/06/25 02:02:49;;;;;;;;;1.00;1.00;;;;;;;;5092929;27;46334;-76
2022/06/25 02:05:15;;;;;;;;;2.00;2.00;;;;;;;;5091516;27;45440;-75
2022/06/25 02:07:40;;;;;;;;;2.00;2.00;;;;;;;;5092905;27;45456;-75
2022/06/25 02:10:06;;;;;;;;;1.00;1.00;;;;;;;;5092966;27;45585;-75
2022/06/25 02:12:31;;;;;;;;;1.00;1.00;;;;;;;;5095081;27;46414;-75
2022/06/25 02:14:57;;;;;;;;;1.33;1.33;;;;;;;;5091426;27;45437;-75
2022/06/25 02:17:22;;;;;;;;;3.00;1.00;;;;;;;;5091946;27;45266;-75
2022/06/25 02:19:47;;;;;;;;;1.00;1.00;;;;;;;;5091477;27;45505;-75
2022/06/25 02:22:14;;;;;;;;;2.67;2.00;;;;;;;;5092962;27;46293;-76
2022/06/25 02:24:43;;;;;;;;;2.00;2.00;;;;;;;;5094850;27;45363;-75
2022/06/25 02:27:08;;;;;;;;;1.00;1.00;;;;;;;;5092560;27;45524;-76
2022/06/25 02:29:34;;;;;;;;;1.33;1.33;;;;;;;;5093306;27;45453;-76
2022/06/25 02:31:59;;;;;;;;;1.33;1.33;;;;;;;;5093981;27;46438;-75
2022/06/25 02:34:25;;;;;;;;;1.00;1.00;;;;;;;;5096611;27;45457;-75
2022/06/25 02:36:50;;;;;;;;;1.00;1.00;;;;;;;;5096729;27;45693;-76
2022/06/25 02:39:16;;;;;;;;;2.00;2.00;;;;;;;;5097871;27;45502;-75
2022/06/25 02:41:41;;;;;;;;;1.67;1.67;;;;;;;;5096006;27;45962;-75
2022/06/25 02:44:06;;;;;;;;;1.00;1.00;;;;;;;;5095679;27;45448;-75
2022/06/25 02:46:32;;;;;;;;;1.00;1.00;;;;;;;;5090268;27;45426;-75
2022/06/25 02:48:57;;;;;;;;;1.00;1.00;;;;;;;;5097180;27;45365;-76
2022/06/25 02:51:22;;;;;;;;;1.00;1.00;;;;;;;;5095897;27;45473;-76
2022/06/25 02:53:47;;;;;;;;;4.33;2.00;;;;;;;;5094786;27;45542;-76
2022/06/25 02:58:56;;;;;;;;;2.00;2.00;;;;;;;;5093253;27;45430;-75
2022/06/25 03:01:28;;;;;;;;;1.00;1.00;;;;;;;;5095533;27;45441;-76
2022/06/25 03:03:54;;;;;;;;;1.00;1.00;;;;;;;;5096939;27;45802;-75
2022/06/25 03:06:19;;;;;;;;;2.00;2.00;;;;;;;;5095735;27;45501;-75
2022/06/25 03:08:45;;;;;;;;;1.00;1.00;;;;;;;;5095969;27;45445;-75
2022/06/25 03:11:10;;;;;;;;;3.00;1.67;;;;;;;;5094326;27;46426;-75
2022/06/25 03:13:36;;;;;;;;;0.33;0.33;;;;;;;;5095183;27;45393;-75
2022/06/25 03:16:02;;;;;;;;;1.00;1.00;;;;;;;;5096727;27;45242;-75
2022/06/25 03:18:28;;;;;;;;;1.00;1.00;;;;;;;;5096193;27;45483;-76
2022/06/25 03:20:53;;;;;;;;;2.00;2.00;;;;;;;;5095203;27;47145;-75
2022/06/25 03:23:19;;;;;;;;;0.33;0.33;;;;;;;;5096814;27;45325;-76
2022/06/25 03:25:44;;;;;;;;;1.00;1.00;;;;;;;;5094094;27;45430;-75
2022/06/25 03:28:10;;;;;;;;;0.33;0.33;;;;;;;;5094851;27;45428;-76
2022/06/25 03:30:35;;;;;;;;;2.00;1.00;;;;;;;;5096328;27;45504;-75
2022/06/25 03:33:00;;;;;;;;;1.33;1.33;;;;;;;;5093681;27;45386;-76
2022/06/25 03:35:26;;;;;;;;;2.00;2.00;;;;;;;;5095223;27;45413;-75
2022/06/25 03:37:51;;;;;;;;;2.00;0.33;;;;;;;;5096352;27;45505;-75
2022/06/25 03:40:17;;;;;;;;;1.00;1.00;;;;;;;;5094750;27;46295;-76
2022/06/25 03:42:42;;;;;;;;;0.00;0.00;;;;;;;;5097190;27;45531;-75
2022/06/25 03:45:07;;;;;;;;;1.00;1.00;;;;;;;;5092469;27;45501;-75
2022/06/25 03:47:33;;;;;;;;;0.67;0.67;;;;;;;;5094843;27;45546;-76
2022/06/25 03:49:58;;;;;;;;;1.00;1.00;;;;;;;;5094242;27;45566;-76
2022/06/25 03:52:23;;;;;;;;;1.00;1.00;;;;;;;;5092089;27;45505;-75
2022/06/25 03:54:48;;;;;;;;;1.00;1.00;;;;;;;;5096928;27;45487;-75
2022/06/25 03:57:14;;;;;;;;;1.00;1.00;;;;;;;;5095922;27;45438;-76
2022/06/25 03:59:39;;;;;;;;;1.00;1.00;;;;;;;;5093114;27;46763;-76
2022/06/25 04:02:04;;;;;;;;;1.00;1.00;;;;;;;;5085493;27;45482;-76
2022/06/25 04:04:29;;;;;;;;;1.00;1.00;;;;;;;;5093490;27;45389;-76
2022/06/25 04:06:54;;;;;;;;;1.33;1.00;;;;;;;;5096549;27;46615;-76
2022/06/25 04:09:20;;;;;;;;;1.00;1.00;;;;;;;;5096846;27;45376;-75
2022/06/25 04:11:45;;;;;;;;;1.00;1.00;;;;;;;;5095803;27;45448;-76
2022/06/25 04:14:10;;;;;;;;;1.00;1.00;;;;;;;;5093408;27;45432;-76
2022/06/25 04:16:35;;;;;;;;;1.00;1.00;;;;;;;;5093903;27;45528;-76
2022/06/25 04:19:00;;;;;;;;;1.00;1.00;;;;;;;;5095102;27;45607;-76
2022/06/25 04:21:27;;;;;;;;;1.00;1.00;;;;;;;;5097077;27;45378;-76
2022/06/25 04:23:52;;;;;;;;;1.00;1.00;;;;;;;;5086096;27;45322;-76
2022/06/25 04:26:17;;;;;;;;;0.00;0.00;;;;;;;;5091914;27;45410;-76
2022/06/25 04:31:26;;;;;;;;;2.67;1.33;;;;;;;;5091543;27;45437;-76
2022/06/25 04:33:51;;;;;;;;;2.00;2.00;;;;;;;;5095687;27;45437;-76
2022/06/25 04:36:17;;;;;;;;;1.00;1.00;;;;;;;;5088784;27;45373;-75
2022/06/25 04:38:42;;;;;;;;;1.00;1.00;;;;;;;;5090445;27;46384;-76
2022/06/25 04:41:08;;;;;;;;;0.67;0.67;;;;;;;;5092706;27;45518;-76
2022/06/25 04:43:33;;;;;;;;;0.33;0.33;;;;;;;;5094749;27;45459;-75
2022/06/25 04:45:58;;;;;;;;;0.00;0.00;;;;;;;;5095616;27;45197;-75
2022/06/25 04:48:23;;;;;;;;;1.00;1.00;;;;;;;;5094142;27;47045;-76
2022/06/25 04:50:48;;;;;;;;;2.67;1.00;;;;;;;;5093539;27;45443;-76
2022/06/25 04:53:14;;;;;;;;;0.67;0.67;;;;;;;;5093670;27;45456;-76
2022/06/25 04:55:39;;;;;;;;;0.67;0.67;;;;;;;;5092178;27;45519;-76
2022/06/25 04:58:04;;;;;;;;;1.00;0.00;;;;;;;;5093833;27;45509;-76
2022/06/25 05:00:29;;;;;;;;;1.00;1.00;;;;;;;;5095976;27;45275;-76
2022/06/25 05:02:54;;;;;;;;;0.00;0.00;;;;;;;;5093367;27;45393;-75
2022/06/25 05:05:20;;;;;;;;;1.33;1.33;;;;;;;;5093690;27;45287;-76
2022/06/25 05:07:45;;;;;;;;;0.00;0.00;;;;;;;;5092174;27;45811;-75
2022/06/25 05:10:10;;;;;;;;;1.00;0.33;;;;;;;;5093731;27;45411;-76
2022/06/25 05:15:20;;;;;;;;;1.33;1.33;;;;;;;;5095126;27;45215;-76
2022/06/25 05:17:45;;;;;;;;;1.00;1.00;;;;;;;;5093552;27;46401;-76
2022/06/25 05:20:11;;;;;;;;;2.00;0.33;;;;;;;;5093984;27;45469;-77
2022/06/25 05:22:36;;;;;;;;;2.00;0.67;;;;;;;;5092485;27;45570;-76
2022/06/25 05:25:01;;;;;;;;;0.00;0.00;;;;;;;;5094428;27;45420;-76
2022/06/25 05:27:27;;;;;;;;;0.33;0.33;;;;;;;;5093796;27;46478;-76
2022/06/25 05:29:53;;;;;;;;;0.00;0.00;;;;;;;;5093627;27;45454;-76
2022/06/25 05:32:18;;;;;;;;;0.00;0.00;;;;;;;;5095338;27;45442;-75
2022/06/25 05:34:43;;;;;;;;;1.00;1.00;;;;;;;;5092651;27;45309;-76
2022/06/25 05:37:08;;;;;;;;;2.33;0.67;;;;;;;;5093449;27;45623;-77
2022/06/25 05:39:34;;;;;;;;;0.67;0.67;;;;;;;;5094647;27;45272;-76
2022/06/25 05:41:59;;;;;;;;;0.67;0.67;;;;;;;;5094056;27;45264;-76
2022/06/25 05:44:24;;;;;;;;;0.67;0.67;;;;;;;;5093292;27;45256;-75
2022/06/25 05:46:49;;;;;;;;;1.00;1.00;;;;;;;;5093356;27;46204;-76
2022/06/25 05:49:14;;;;;;;;;1.00;1.00;;;;;;;;5094230;27;45236;-76
2022/06/25 05:51:40;;;;;;;;;0.00;0.00;;;;;;;;5095552;27;45228;-76
2022/06/25 05:54:05;;;;;;;;;1.00;1.00;;;;;;;;5093233;27;45296;-76
2022/06/25 05:56:30;;;;;;;;;0.67;0.33;;;;;;;;5092944;27;46703;-76
2022/06/25 05:58:56;;;;;;;;;0.00;0.00;;;;;;;;5093228;27;45471;-77
2022/06/25 06:01:21;;;;;;;;;2.00;0.00;;;;;;;;5091914;27;45430;-77
2022/06/25 06:03:46;;;;;;;;;2.00;0.00;;;;;;;;5097944;27;45253;-76
2022/06/25 06:06:11;;;;;;;;;0.67;0.67;;;;;;;;5094898;27;46322;-76
2022/06/25 06:08:36;;;;;;;;;1.00;1.00;;;;;;;;5094312;27;45209;-76
2022/06/25 06:11:02;;;;;;;;;0.00;0.00;;;;;;;;5096944;27;45374;-76
2022/06/25 06:13:27;;;;;;;;;0.67;0.67;;;;;;;;5095798;27;45276;-76
2022/06/25 06:15:52;;;;;;;;;0.00;0.00;;;;;;;;5097975;27;46383;-77
2022/06/25 06:18:17;;;;;;;;;0.67;0.67;;;;;;;;5097446;27;45429;-76
2022/06/25 06:20:43;;;;;;;;;0.00;0.00;;;;;;;;5096360;27;45157;-76
2022/06/25 06:23:08;;;;;;;;;0.67;0.67;;;;;;;;5096514;27;45376;-76
2022/06/25 06:25:33;;;;;;;;;1.33;1.00;;;;;;;;5095182;27;46266;-76
2022/06/25 06:27:58;;;;;;;;;0.00;0.00;;;;;;;;5098039;27;45527;-76
2022/06/25 06:30:24;;;;;;;;;0.67;0.00;;;;;;;;5096618;27;45273;-76
2022/06/25 06:32:49;;;;;;;;;2.00;1.67;;;;;;;;5095225;27;45346;-76
2022/06/25 06:35:14;;;;;;;;;1.00;1.00;;;;;;;;5095778;27;46466;-76
2022/06/25 06:37:39;;;;;;;;;0.33;0.33;;;;;;;;5096418;27;45296;-76
2022/06/25 06:40:05;;;;;;;;;0.00;0.00;;;;;;;;5096156;27;45490;-76
2022/06/25 06:42:30;;;;;;;;;1.00;1.00;;;;;;;;5096684;27;45473;-76
2022/06/25 06:44:56;;;;;;;;;1.00;1.00;;;;;;;;5096285;27;46199;-76
2022/06/25 06:47:21;;;;;;;;;0.33;0.33;;;;;;;;5087837;27;45522;-77
2022/06/25 06:49:46;;;;;;;;;0.00;0.00;;;;;;;;5095865;27;45535;-76
2022/06/25 06:52:11;;;;;;;;;1.00;0.00;;;;;;;;5096474;27;45592;-76
2022/06/25 06:54:37;;;;;;;;;2.00;1.00;;;;;;;;5098097;27;46384;-76
2022/06/25 06:57:02;;;;;;;;;0.67;0.67;;;;;;;;5095934;27;45403;-76
2022/06/25 06:59:27;;;;;;;;;0.00;0.00;;;;;;;;5094660;27;45388;-75
2022/06/25 07:01:53;;;;;;;;;4.00;1.00;;;;;;;;5094582;27;45422;-76
2022/06/25 07:04:18;;;;;;;;;0.00;0.00;;;;;;;;5094656;27;45437;-76
2022/06/25 07:06:43;;;;;;;;;0.00;0.00;;;;;;;;5098016;27;45442;-76
2022/06/25 07:09:08;;;;;;;;;0.00;0.00;;;;;;;;5095847;27;45483;-76
2022/06/25 07:11:33;;;;;;;;;0.33;0.33;;;;;;;;5094062;27;45562;-76
2022/06/25 07:14:00;;;;;;;;;2.00;0.33;;;;;;;;5095323;27;45535;-76
2022/06/25 07:16:26;;;;;;;;;0.00;0.00;;;;;;;;5093896;27;45507;-76
2022/06/25 07:18:52;;;;;;;;;0.00;0.00;;;;;;;;5091438;27;45302;-77
2022/06/25 07:21:17;;;;;;;;;0.00;0.00;;;;;;;;5095233;27;45588;-77
2022/06/25 07:23:42;;;;;;;;;1.00;0.67;;;;;;;;5096341;27;46545;-77
2022/06/25 07:26:08;;;;;;;;;1.00;1.00;;;;;;;;5095881;27;45316;-77
2022/06/25 07:28:33;;;;;;;;;0.00;0.00;;;;;;;;5095601;27;45267;-76
2022/06/25 07:30:58;;;;;;;;;0.00;0.00;;;;;;;;5097696;27;45384;-76
2022/06/25 07:33:23;;;;;;;;;0.00;0.00;;;;;;;;5094848;27;47249;-76
2022/06/25 07:35:48;;;;;;;;;0.00;0.00;;;;;;;;5095422;27;45607;-76
2022/06/25 07:38:13;;;;;;;;;0.00;0.00;;;;;;;;5095490;27;45438;-76
2022/06/25 07:40:39;;;;;;;;;0.00;0.00;;;;;;;;5093881;27;45386;-76
2022/06/25 07:43:04;;;;;;;;;1.00;1.00;;;;;;;;5095218;27;46298;-76
2022/06/25 07:45:32;;;;;;;;;1.00;1.00;;;;;;;;5097457;27;45437;-76
2022/06/25 07:47:57;;;;;;;;;0.00;0.00;;;;;;;;5093516;27;45374;-76
2022/06/25 07:53:06;;;;;;;;;0.33;0.33;;;;;;;;5094817;27;45793;-76
2022/06/25 07:55:31;;;;;;;;;0.00;0.00;;;;;;;;5094797;27;45629;-77
2022/06/25 07:57:56;;;;;;;;;2.00;0.00;;;;;;;;5095912;27;45430;-77
2022/06/25 08:00:22;;;;;;;;;0.00;0.00;;;;;;;;5094836;27;45502;-75
2022/06/25 08:02:47;;;;;;;;;0.00;0.00;;;;;;;;5094688;27;45453;-77
2022/06/25 08:05:13;;;;;;;;;1.00;1.00;;;;;;;;5094606;27;45420;-77
2022/06/25 08:07:38;;;;;;;;;0.00;0.00;;;;;;;;5095866;27;45451;-76
2022/06/25 08:10:04;;;;;;;;;0.00;0.00;;;;;;;;5095139;27;45317;-77
2022/06/25 08:12:29;;;;;;;;;0.50;0.50;;;;;;;;5097057;27;45462;-77
2022/06/25 08:14:54;;;;;;;;;1.67;1.67;;;;;;;;5094501;27;45331;-77
2022/06/25 08:17:20;;;;;;;;;0.00;0.00;;;;;;;;5094975;27;45288;-77
2022/06/25 08:19:45;;;;;;;;;0.00;0.00;;;;;;;;5094492;27;45436;-77
2022/06/25 08:22:10;;;;;;;;;0.33;0.33;;;;;;;;5094556;27;47245;-78
2022/06/25 08:24:36;;;;;;;;;0.33;0.33;;;;;;;;5095641;27;45455;-77
2022/06/25 08:27:01;;;;;;;;;0.00;0.00;;;;;;;;5092186;27;45459;-78
2022/06/25 08:29:26;;;;;;;;;1.00;1.00;;;;;;;;5093961;27;45267;-77
2022/06/25 08:31:53;;;;;;;;;0.67;0.67;;;;;;;;5092664;27;45498;-77
2022/06/25 08:34:18;;;;;;;;;1.00;1.00;;;;;;;;5093379;27;49454;-76
2022/06/25 08:36:43;;;;;;;;;1.33;0.00;;;;;;;;5092676;27;45287;-77
2022/06/25 08:39:09;;;;;;;;;0.00;0.00;;;;;;;;5095842;27;45586;-77
2022/06/25 08:41:35;;;;;;;;;3.00;1.00;;;;;;;;5093984;27;46097;-77
2022/06/25 08:44:01;;;;;;;;;2.33;0.00;;;;;;;;5094226;27;45852;-77
2022/06/25 08:46:27;;;;;;;;;0.00;0.00;;;;;;;;5092156;27;45416;-77
2022/06/25 08:48:54;;;;;;;;;1.00;0.00;;;;;;;;5095777;27;45531;-77
2022/06/25 08:51:20;;;;;;;;;0.00;0.00;;;;;;;;5093741;27;46587;-77
2022/06/25 08:53:45;;;;;;;;;0.00;0.00;;;;;;;;5095018;27;45490;-76
2022/06/25 08:56:11;;;;;;;;;0.00;0.00;;;;;;;;5094108;27;45469;-77
2022/06/25 08:58:37;;;;;;;;;1.33;1.00;;;;;;;;5094243;27;45591;-76
2022/06/25 09:01:02;;;;;;;;;0.67;0.67;;;;;;;;5094026;27;47095;-77
2022/06/25 09:03:27;;;;;;;;;2.67;0.67;;;;;;;;5095982;27;45277;-77
2022/06/25 09:05:53;;;;;;;;;0.00;0.00;;;;;;;;5093804;27;45438;-77
2022/06/25 09:08:18;;;;;;;;;0.00;0.00;;;;;;;;5094180;27;45584;-76
2022/06/25 09:10:45;;;;;;;;;1.00;0.00;;;;;;;;5093966;27;47264;-77
2022/06/25 09:13:11;;;;;;;;;0.00;0.00;;;;;;;;5093537;27;45502;-77
2022/06/25 09:15:45;;;;;;;;;0.00;0.00;;;;;;;;5090316;27;45542;-78
2022/06/25 09:18:11;;;;;;;;;0.00;0.00;;;;;;;;5093978;27;45707;-77
2022/06/25 09:20:57;;;;;;;;;1.33;0.00;;;;;;;;5093382;27;46499;-78
2022/06/25 09:23:22;;;;;;;;;0.00;0.00;;;;;;;;5092347;27;45528;-77
2022/06/25 09:25:59;;;;;;;;;0.67;0.00;;;;;;;;5092665;27;45335;-77
2022/06/25 09:28:31;;;;;;;;;0.00;0.00;;;;;;;;5085524;27;45473;-77
2022/06/25 09:30:56;;;;;;;;;1.00;0.00;;;;;;;;5094418;27;45986;-77
2022/06/25 09:33:21;;;;;;;;;0.00;0.00;;;;;;;;5094624;27;45405;-77
2022/06/25 09:35:49;;;;;;;;;0.00;0.00;;;;;;;;5092977;27;45370;-77
2022/06/25 09:38:16;;;;;;;;;2.00;0.00;;;;;;;;5095255;27;45344;-77
2022/06/25 09:40:48;;;;;;;;;0.33;0.33;;;;;;;;5095526;27;46427;-78
2022/06/25 09:43:24;;;;;;;;;1.00;0.00;;;;;;;;5097170;27;45400;-78
2022/06/25 09:45:51;;;;;;;;;0.00;0.00;;;;;;;;5095042;27;45518;-77
2022/06/25 09:48:20;;;;;;;;;0.00;0.00;;;;;;;;5096189;27;45506;-77
2022/06/25 09:51:04;;;;;;;;;0.00;0.00;;;;;;;;5095592;27;46206;-78
2022/06/25 09:53:30;;;;;;;;;0.00;0.00;;;;;;;;5097076;27;45481;-77
2022/06/25 09:55:56;;;;;;;;;0.00;0.00;;;;;;;;5095113;27;45426;-77
2022/06/25 09:58:22;;;;;;;;;0.00;0.00;;;;;;;;5096590;27;45355;-77
2022/06/25 10:00:47;;;;;;;;;0.00;0.00;;;;;;;;5098915;27;45469;-78
2022/06/25 10:03:13;;;;;;;;;0.33;0.00;;;;;;;;5096940;27;45386;-78
2022/06/25 10:05:40;;;;;;;;;0.67;0.00;;;;;;;;5097687;27;45462;-77
2022/06/25 10:08:07;;;;;;;;;0.33;0.33;;;;;;;;5097196;27;45526;-77
2022/06/25 10:10:40;;;;;;;;;0.00;0.00;;;;;;;;5096597;27;45575;-77
2022/06/25 10:13:06;;;;;;;;;1.33;0.00;;;;;;;;5095049;27;45590;-78
2022/06/25 10:15:32;;;;;;;;;0.00;0.00;;;;;;;;5098941;27;45235;-78
2022/06/25 10:17:59;;;;;;;;;1.00;1.00;;;;;;;;5096818;27;45457;-77
2022/06/25 10:20:24;;;;;;;;;0.33;0.33;;;;;;;;5095755;27;46109;-78
2022/06/25 10:22:50;;;;;;;;;0.00;0.00;;;;;;;;5097460;27;45397;-78
2022/06/25 10:25:18;;;;;;;;;0.00;0.00;;;;;;;;5095815;27;45463;-78
2022/06/25 10:27:47;;;;;;;;;0.00;0.00;;;;;;;;5098161;27;45362;-78
2022/06/25 10:30:13;;;;;;;;;0.33;0.00;;;;;;;;5096130;27;46653;-79
2022/06/25 10:32:57;;;;;;;;;0.00;0.00;;;;;;;;5095153;27;45485;-78
2022/06/25 10:35:29;;;;;;;;;1.00;0.00;;;;;;;;5096442;27;45338;-77
2022/06/25 10:37:58;;;;;;;;;0.00;0.00;;;;;;;;5096286;27;45590;-77
2022/06/25 10:40:23;;;;;;;;;0.00;0.00;;;;;;;;5095245;27;46201;-78
2022/06/25 10:43:01;;;;;;;;;1.00;1.00;;;;;;;;5098300;27;45420;-77
2022/06/25 10:45:26;;;;;;;;;0.00;0.00;;;;;;;;5098338;27;45288;-77
2022/06/25 10:47:58;;;;;;;;;1.00;1.00;;;;;;;;5097748;27;45559;-73
2022/06/25 10:50:23;;;;;;;;;0.00;0.00;;;;;;;;5095521;27;46300;-77
2022/06/25 10:53:00;;;;;;;;;0.00;0.00;;;;;;;;5096006;27;45462;-77
2022/06/25 10:55:26;;;;;;;;;1.33;0.00;;;;;;;;5093699;27;45275;-74
2022/06/25 10:57:51;;;;;;;;;2.00;2.00;;;;;;;;5094702;27;45414;-75
2022/06/25 11:00:16;;;;;;;;;2.67;1.00;;;;;;;;5083406;27;45599;-74
2022/06/25 11:02:41;;;;;;;;;1.00;1.00;;;;;;;;5089732;27;45462;-74
2022/06/25 11:05:17;;;;;;;;;1.33;1.33;;;;;;;;5093970;27;49035;-74
2022/06/25 11:07:43;;;;;;;;;1.33;1.33;;;;;;;;5095056;27;45309;-74
2022/06/25 11:10:08;;;;;;;;;2.00;1.00;;;;;;;;5095688;27;46382;-75
2022/06/25 11:12:34;;;;;;;;;0.00;0.00;;;;;;;;5095885;27;45526;-75
2022/06/25 11:15:00;;;;;;;;;2.00;0.00;;;;;;;;5095631;27;45530;-72
2022/06/25 11:17:25;;;;;;;;;1.00;1.00;;;;;;;;5095032;27;45302;-72
2022/06/25 11:19:50;;;;;;;;;1.00;1.00;;;;;;;;5094718;27;46278;-72
2022/06/25 11:22:15;;;;;;;;;1.00;1.00;;;;;;;;5094110;27;45360;-72
2022/06/25 11:28:47;;;;;;;;;1.00;0.67;;;;;;;;5097199;27;45335;-72
2022/06/25 11:30:12;;;;;;;;;1.67;1.67;;;;;;;;5093688;27;45870;-72
2022/06/25 11:32:41;;;;;;;;;1.33;1.33;;;;;;;;5093443;27;45387;-72
2022/06/25 11:35:07;;;;;;;;;1.00;1.00;;;;;;;;5095683;27;49263;-72
2022/06/25 11:37:32;;;;;;;;;2.00;1.00;;;;;;;;5095754;27;45568;-73
2022/06/25 11:39:57;;;;;;;;;1.67;1.67;;;;;;;;5095228;27;45550;-72
2022/06/25 11:42:22;;;;;;;;;1.00;1.00;;;;;;;;5094620;27;45496;-72
2022/06/25 11:44:51;;;;;;;;;1.67;1.33;;;;;;;;5094645;27;45403;-72
2022/06/25 11:47:20;;;;;;;;;0.67;0.67;;;;;;;;5093204;27;45540;-72
2022/06/25 11:49:46;;;;;;;;;1.00;1.00;;;;;;;;5093020;27;45558;-72
2022/06/25 11:52:12;;;;;;;;;1.33;1.33;;;;;;;;5094310;27;45302;-72
2022/06/25 11:54:38;;;;;;;;;3.67;2.00;;;;;;;;5095663;27;45385;-74
2022/06/25 11:57:05;;;;;;;;;3.00;2.00;;;;;;;;5093126;27;45466;-73
2022/06/25 11:59:31;;;;;;;;;1.00;1.00;;;;;;;;5092858;27;46304;-75
2022/06/25 12:02:03;;;;;;;;;1.00;1.00;;;;;;;;5095249;27;45321;-74
2022/06/25 12:04:29;;;;;;;;;1.00;1.00;;;;;;;;5093061;27;45456;-74
2022/06/25 12:06:54;;;;;;;;;1.00;1.00;;;;;;;;5096018;27;45564;-74
2022/06/25 12:09:20;;;;;;;;;3.00;2.00;;;;;;;;5093586;27;46370;-73
2022/06/25 12:11:52;;;;;;;;;2.33;1.00;;;;;;;;5093163;27;45413;-73
2022/06/25 12:14:31;;;;;;;;;2.00;2.00;;;;;;;;5093174;27;45298;-74
2022/06/25 12:16:58;;;;;;;;;3.67;1.33;;;;;;;;5092927;27;45503;-75
2022/06/25 12:19:23;;;;;;;;;2.00;1.67;;;;;;;;5092622;27;46327;-75
2022/06/25 12:21:49;;;;;;;;;2.67;1.00;;;;;;;;5096707;27;45267;-74
2022/06/25 12:24:15;;;;;;;;;2.00;2.00;;;;;;;;5092268;27;45388;-75
2022/06/25 12:26:43;;;;;;;;;2.33;2.00;;;;;;;;5093067;27;45437;-76
2022/06/25 12:29:10;;;;;;;;;1.00;1.00;;;;;;;;5092866;27;46111;-75
2022/06/25 12:31:35;;;;;;;;;2.33;1.33;;;;;;;;5092543;27;45486;-74
2022/06/25 12:34:02;;;;;;;;;3.00;1.00;;;;;;;;5095130;27;45340;-76
2022/06/25 12:36:27;;;;;;;;;1.00;1.00;;;;;;;;5094256;27;45258;-75
2022/06/25 12:38:52;;;;;;;;;1.00;1.00;;;;;;;;5092024;27;47383;-77
2022/06/25 12:41:17;;;;;;;;;1.00;1.00;;;;;;;;5094126;27;45297;-77
2022/06/25 12:43:46;;;;;;;;;2.00;1.00;;;;;;;;5095182;27;45277;-78
2022/06/25 12:46:12;;;;;;;;;1.00;1.00;;;;;;;;5094006;27;45409;-77
2022/06/25 12:48:37;;;;;;;;;2.00;2.00;;;;;;;;5095143;27;46268;-77
2022/06/25 12:51:06;;;;;;;;;2.00;2.00;;;;;;;;5092559;27;45456;-77
2022/06/25 12:53:32;;;;;;;;;1.00;1.00;;;;;;;;5092057;27;45532;-76
2022/06/25 12:56:00;;;;;;;;;2.33;1.33;;;;;;;;5094204;27;45501;-77
2022/06/25 12:58:32;;;;;;;;;1.00;1.00;;;;;;;;5092062;27;47131;-76
2022/06/25 13:00:57;;;;;;;;;2.00;2.00;;;;;;;;5094957;27;45278;-76
2022/06/25 13:03:23;;;;;;;;;1.67;1.67;;;;;;;;5093836;27;45401;-76
2022/06/25 13:05:48;;;;;;;;;2.00;2.00;;;;;;;;5092611;27;45463;-76
2022/06/25 13:08:13;;;;;;;;;2.00;2.00;;;;;;;;5092114;27;45400;-76
2022/06/25 13:10:40;;;;;;;;;2.00;2.00;;;;;;;;5092443;27;45329;-77
2022/06/25 13:13:05;;;;;;;;;2.00;2.00;;;;;;;;5093644;27;45318;-77
2022/06/25 13:15:30;;;;;;;;;2.00;1.00;;;;;;;;5094151;27;45489;-78
2022/06/25 13:17:55;;;;;;;;;6.00;2.00;;;;;;;;5092123;27;45231;-77
2022/06/25 13:20:21;;;;;;;;;1.00;1.00;;;;;;;;5092306;27;45329;-78
2022/06/25 13:22:46;;;;;;;;;3.33;2.00;;;;;;;;5092346;27;45682;-76
2022/06/25 13:25:11;;;;;;;;;1.00;0.33;;;;;;;;5093395;27;46318;-77
2022/06/25 13:27:40;;;;;;;;;1.00;1.00;;;;;;;;5094612;27;46480;-77
2022/06/25 13:30:05;;;;;;;;;1.67;1.67;;;;;;;;5094615;27;45513;-76
2022/06/25 13:32:31;;;;;;;;;1.67;1.67;;;;;;;;5092033;27;45428;-76
2022/06/25 13:34:56;;;;;;;;;2.00;2.00;;;;;;;;5094506;27;45420;-77
2022/06/25 13:37:21;;;;;;;;;1.33;1.00;;;;;;;;5091562;27;49775;-78
2022/06/25 13:39:46;;;;;;;;;3.00;1.33;;;;;;;;5094548;27;45818;-75
2022/06/25 13:42:12;;;;;;;;;3.00;2.00;;;;;;;;5091971;27;45328;-77
2022/06/25 13:44:37;;;;;;;;;3.00;2.00;;;;;;;;5092014;27;45484;-77
2022/06/25 13:47:04;;;;;;;;;2.00;2.00;;;;;;;;5091751;27;46583;-77
2022/06/25 13:49:29;;;;;;;;;1.67;1.67;;;;;;;;5092279;27;45440;-76
2022/06/25 13:51:55;;;;;;;;;1.33;1.33;;;;;;;;5093978;27;45952;-75
2022/06/25 13:54:21;;;;;;;;;1.00;1.00;;;;;;;;5092948;27;45347;-76
2022/06/25 13:56:46;;;;;;;;;2.00;2.00;;;;;;;;5091371;27;45484;-76
2022/06/25 13:59:11;;;;;;;;;3.33;2.33;;;;;;;;5091416;27;45464;-77
2022/06/25 14:01:36;;;;;;;;;1.00;1.00;;;;;;;;5091823;27;45800;-76
2022/06/25 14:04:02;;;;;;;;;1.67;1.33;;;;;;;;5092003;27;45470;-75
2022/06/25 14:06:28;;;;;;;;;2.00;2.00;;;;;;;;5094410;27;46574;-77
2022/06/25 14:08:54;;;;;;;;;2.00;2.00;;;;;;;;5091234;27;45595;-75
2022/06/25 14:11:20;;;;;;;;;1.00;1.00;;;;;;;;5091547;27;45418;-71
2022/06/25 14:13:45;;;;;;;;;1.33;1.33;;;;;;;;5092801;27;45343;-72
2022/06/25 14:16:10;;;;;;;;;2.00;2.00;;;;;;;;5092543;27;45486;-72
2022/06/25 14:18:35;;;;;;;;;1.00;1.00;;;;;;;;5093364;27;45442;-72
2022/06/25 14:21:02;;;;;;;;;2.00;2.00;;;;;;;;5092165;27;45464;-71
2022/06/25 14:23:27;;;;;;;;;1.00;0.67;;;;;;;;5091673;27;45461;-82
2022/06/25 14:25:53;;;;;;;;;3.00;2.00;;;;;;;;5095639;27;47249;-75
2022/06/25 14:28:18;;;;;;;;;4.33;3.00;;;;;;;;5095192;27;45589;-73
2022/06/25 14:30:43;;;;;;;;;1.67;1.00;;;;;;;;5098407;27;45125;-72
2022/06/25 14:33:09;;;;;;;;;3.67;2.00;;;;;;;;5097335;27;45325;-74
2022/06/25 14:35:34;;;;;;;;;1.00;1.00;;;;;;;;5093741;27;46359;-74
2022/06/25 14:43:28;;;;;;;;;2.33;1.00;;;;;;;;5090506;27;45471;-74
2022/06/25 14:45:54;;;;;;;;;1.00;1.00;;;;;;;;5096997;27;47240;-74
2022/06/25 14:48:19;;;;;;;;;0.00;0.00;;;;;;;;5094835;27;45338;-74
2022/06/25 14:50:45;;;;;;;;;1.00;1.00;;;;;;;;5096490;27;45474;-74
2022/06/25 14:53:10;;;;;;;;;1.67;1.00;;;;;;;;5094347;27;45173;-74
2022/06/25 14:55:36;;;;;;;;;1.00;1.00;;;;;;;;5093455;27;45551;-74